sensor_id;sensor_type;location;lat;lon;timestamp;temperature;humidity
78733;DHT22;68056;52.530;5.454;2023-03-18T00:01:02;11.70;63.80
78733;DHT22;68056;52.530;5.454;2023-03-18T00:03:32;11.50;64.00
78733;DHT22;68056;52.530;5.454;2023-03-18T00:08:32;11.40;64.20
78733;DHT22;68056;52.530;5.454;2023-03-18T00:10:59;11.30;64.20
78733;DHT22;68056;52.530;5.454;2023-03-18T00:13:25;11.30;64.50
78733;DHT22;68056;52.530;5.454;2023-03-18T00:15:52;11.20;64.50
78733;DHT22;68056;52.530;5.454;2023-03-18T00:18:19;11.20;64.60
78733;DHT22;68056;52.530;5.454;2023-03-18T00:20:45;11.10;64.60
78733;DHT22;68056;52.530;5.454;2023-03-18T00:23:10;11.10;64.60
78733;DHT22;68056;52.530;5.454;2023-03-18T00:25:37;11.00;64.70
78733;DHT22;68056;52.530;5.454;2023-03-18T00:28:06;10.90;64.70
78733;DHT22;68056;52.530;5.454;2023-03-18T00:30:35;10.90;64.90
78733;DHT22;68056;52.530;5.454;2023-03-18T00:33:01;10.80;65.00
78733;DHT22;68056;52.530;5.454;2023-03-18T00:35:27;10.80;65.00
78733;DHT22;68056;52.530;5.454;2023-03-18T00:37:54;10.70;65.10
78733;DHT22;68056;52.530;5.454;2023-03-18T00:40:22;10.70;65.20
78733;DHT22;68056;52.530;5.454;2023-03-18T00:42:54;10.60;65.30
78733;DHT22;68056;52.530;5.454;2023-03-18T00:45:26;10.60;65.40
78733;DHT22;68056;52.530;5.454;2023-03-18T00:47:51;10.60;65.40
78733;DHT22;68056;52.530;5.454;2023-03-18T00:50:17;10.50;65.50
78733;DHT22;68056;52.530;5.454;2023-03-18T00:52:43;10.50;65.60
78733;DHT22;68056;52.530;5.454;2023-03-18T00:55:09;10.40;65.70
78733;DHT22;68056;52.530;5.454;2023-03-18T00:57:35;10.40;65.70
78733;DHT22;68056;52.530;5.454;2023-03-18T01:00:02;10.40;65.80
78733;DHT22;68056;52.530;5.454;2023-03-18T01:02:29;10.40;65.80
78733;DHT22;68056;52.530;5.454;2023-03-18T01:04:55;10.40;65.80
78733;DHT22;68056;52.530;5.454;2023-03-18T01:07:22;10.40;65.90
78733;DHT22;68056;52.530;5.454;2023-03-18T01:09:48;10.40;65.90
78733;DHT22;68056;52.530;5.454;2023-03-18T01:12:14;10.50;65.90
78733;DHT22;68056;52.530;5.454;2023-03-18T01:14:40;10.50;65.90
78733;DHT22;68056;52.530;5.454;2023-03-18T01:17:07;10.40;65.90
78733;DHT22;68056;52.530;5.454;2023-03-18T01:19:34;10.40;65.90
78733;DHT22;68056;52.530;5.454;2023-03-18T01:22:00;10.40;66.00
78733;DHT22;68056;52.530;5.454;2023-03-18T01:24:26;10.40;66.10
78733;DHT22;68056;52.530;5.454;2023-03-18T01:26:51;10.40;66.20
78733;DHT22;68056;52.530;5.454;2023-03-18T01:29:17;10.30;66.20
78733;DHT22;68056;52.530;5.454;2023-03-18T01:31:45;10.30;66.20
78733;DHT22;68056;52.530;5.454;2023-03-18T01:34:11;10.30;66.20
78733;DHT22;68056;52.530;5.454;2023-03-18T01:36:38;10.30;66.10
78733;DHT22;68056;52.530;5.454;2023-03-18T01:39:04;10.30;66.10
78733;DHT22;68056;52.530;5.454;2023-03-18T01:41:31;10.30;66.10
78733;DHT22;68056;52.530;5.454;2023-03-18T01:43:56;10.30;66.20
78733;DHT22;68056;52.530;5.454;2023-03-18T01:49:00;10.30;66.40
78733;DHT22;68056;52.530;5.454;2023-03-18T01:51:26;10.30;66.40
78733;DHT22;68056;52.530;5.454;2023-03-18T01:53:54;10.30;66.40
78733;DHT22;68056;52.530;5.454;2023-03-18T01:56:22;10.30;66.20
78733;DHT22;68056;52.530;5.454;2023-03-18T01:58:51;10.30;66.30
78733;DHT22;68056;52.530;5.454;2023-03-18T02:01:22;10.40;66.40
78733;DHT22;68056;52.530;5.454;2023-03-18T02:03:51;10.40;66.40
78733;DHT22;68056;52.530;5.454;2023-03-18T02:06:17;10.40;66.40
78733;DHT22;68056;52.530;5.454;2023-03-18T02:08:43;10.40;66.50
78733;DHT22;68056;52.530;5.454;2023-03-18T02:11:09;10.40;66.50
78733;DHT22;68056;52.530;5.454;2023-03-18T02:13:41;10.40;66.60
78733;DHT22;68056;52.530;5.454;2023-03-18T02:16:14;10.40;66.60
78733;DHT22;68056;52.530;5.454;2023-03-18T02:18:45;10.40;66.70
78733;DHT22;68056;52.530;5.454;2023-03-18T02:21:29;10.40;66.60
78733;DHT22;68056;52.530;5.454;2023-03-18T02:24:12;10.50;66.70
78733;DHT22;68056;52.530;5.454;2023-03-18T02:29:29;10.50;66.80
78733;DHT22;68056;52.530;5.454;2023-03-18T02:31:56;10.50;66.60
78733;DHT22;68056;52.530;5.454;2023-03-18T02:34:25;10.40;66.70
78733;DHT22;68056;52.530;5.454;2023-03-18T02:36:52;10.40;66.80
78733;DHT22;68056;52.530;5.454;2023-03-18T02:39:18;10.50;66.80
78733;DHT22;68056;52.530;5.454;2023-03-18T02:41:49;10.40;66.90
78733;DHT22;68056;52.530;5.454;2023-03-18T02:44:15;10.50;67.00
78733;DHT22;68056;52.530;5.454;2023-03-18T02:46:52;10.40;67.10
78733;DHT22;68056;52.530;5.454;2023-03-18T02:49:20;10.50;67.20
78733;DHT22;68056;52.530;5.454;2023-03-18T02:51:45;10.50;67.20
78733;DHT22;68056;52.530;5.454;2023-03-18T02:54:14;10.50;67.20
78733;DHT22;68056;52.530;5.454;2023-03-18T02:56:41;10.50;67.00
78733;DHT22;68056;52.530;5.454;2023-03-18T02:59:08;10.50;67.10
78733;DHT22;68056;52.530;5.454;2023-03-18T03:01:36;10.50;67.10
78733;DHT22;68056;52.530;5.454;2023-03-18T03:04:03;10.60;67.20
78733;DHT22;68056;52.530;5.454;2023-03-18T03:06:29;10.60;67.20
78733;DHT22;68056;52.530;5.454;2023-03-18T03:08:55;10.60;67.20
78733;DHT22;68056;52.530;5.454;2023-03-18T03:11:22;10.60;67.30
78733;DHT22;68056;52.530;5.454;2023-03-18T03:13:48;10.70;67.30
78733;DHT22;68056;52.530;5.454;2023-03-18T03:16:14;10.70;67.30
78733;DHT22;68056;52.530;5.454;2023-03-18T03:18:40;10.70;67.50
78733;DHT22;68056;52.530;5.454;2023-03-18T03:21:06;10.70;67.40
78733;DHT22;68056;52.530;5.454;2023-03-18T03:23:33;10.70;67.50
78733;DHT22;68056;52.530;5.454;2023-03-18T03:25:59;10.70;67.50
78733;DHT22;68056;52.530;5.454;2023-03-18T03:28:25;10.70;67.50
78733;DHT22;68056;52.530;5.454;2023-03-18T03:30:51;10.70;67.50
78733;DHT22;68056;52.530;5.454;2023-03-18T03:33:17;10.70;67.60
78733;DHT22;68056;52.530;5.454;2023-03-18T03:35:43;10.80;67.60
78733;DHT22;68056;52.530;5.454;2023-03-18T03:38:09;10.80;67.60
78733;DHT22;68056;52.530;5.454;2023-03-18T03:40:35;10.80;67.60
78733;DHT22;68056;52.530;5.454;2023-03-18T03:43:01;10.80;67.70
78733;DHT22;68056;52.530;5.454;2023-03-18T03:45:27;10.80;67.70
78733;DHT22;68056;52.530;5.454;2023-03-18T03:47:53;10.80;67.70
78733;DHT22;68056;52.530;5.454;2023-03-18T03:50:18;10.80;67.70
78733;DHT22;68056;52.530;5.454;2023-03-18T03:52:44;10.80;67.80
78733;DHT22;68056;52.530;5.454;2023-03-18T03:55:14;10.80;67.80
78733;DHT22;68056;52.530;5.454;2023-03-18T03:57:40;10.80;67.80
78733;DHT22;68056;52.530;5.454;2023-03-18T04:00:09;10.80;67.80
78733;DHT22;68056;52.530;5.454;2023-03-18T04:02:38;10.80;67.90
78733;DHT22;68056;52.530;5.454;2023-03-18T04:05:04;10.80;67.90
78733;DHT22;68056;52.530;5.454;2023-03-18T04:07:30;10.80;67.90
78733;DHT22;68056;52.530;5.454;2023-03-18T04:09:56;10.80;67.90
78733;DHT22;68056;52.530;5.454;2023-03-18T04:12:21;10.80;68.00
78733;DHT22;68056;52.530;5.454;2023-03-18T04:14:47;10.80;68.00
78733;DHT22;68056;52.530;5.454;2023-03-18T04:17:14;10.70;68.00
78733;DHT22;68056;52.530;5.454;2023-03-18T04:19:40;10.80;68.00
78733;DHT22;68056;52.530;5.454;2023-03-18T04:22:05;10.80;68.00
78733;DHT22;68056;52.530;5.454;2023-03-18T04:24:31;10.80;68.00
78733;DHT22;68056;52.530;5.454;2023-03-18T04:26:57;10.80;68.10
78733;DHT22;68056;52.530;5.454;2023-03-18T04:29:23;10.80;68.10
78733;DHT22;68056;52.530;5.454;2023-03-18T04:31:50;10.80;68.10
78733;DHT22;68056;52.530;5.454;2023-03-18T04:34:16;10.80;68.10
78733;DHT22;68056;52.530;5.454;2023-03-18T04:36:41;10.80;68.10
78733;DHT22;68056;52.530;5.454;2023-03-18T04:39:08;10.80;68.10
78733;DHT22;68056;52.530;5.454;2023-03-18T04:41:34;10.80;68.10
78733;DHT22;68056;52.530;5.454;2023-03-18T04:44:02;10.80;68.10
78733;DHT22;68056;52.530;5.454;2023-03-18T04:46:27;10.80;68.10
78733;DHT22;68056;52.530;5.454;2023-03-18T04:48:55;10.80;68.10
78733;DHT22;68056;52.530;5.454;2023-03-18T04:51:21;10.80;68.10
78733;DHT22;68056;52.530;5.454;2023-03-18T04:53:47;10.70;68.10
78733;DHT22;68056;52.530;5.454;2023-03-18T04:56:12;10.70;68.10
78733;DHT22;68056;52.530;5.454;2023-03-18T04:58:38;10.60;68.20
78733;DHT22;68056;52.530;5.454;2023-03-18T05:01:04;10.60;68.20
78733;DHT22;68056;52.530;5.454;2023-03-18T05:03:29;10.60;68.20
78733;DHT22;68056;52.530;5.454;2023-03-18T05:05:55;10.50;68.30
78733;DHT22;68056;52.530;5.454;2023-03-18T05:08:21;10.50;68.30
78733;DHT22;68056;52.530;5.454;2023-03-18T05:10:49;10.50;68.40
78733;DHT22;68056;52.530;5.454;2023-03-18T05:13:15;10.50;68.30
78733;DHT22;68056;52.530;5.454;2023-03-18T05:15:41;10.50;68.30
78733;DHT22;68056;52.530;5.454;2023-03-18T05:18:07;10.50;68.20
78733;DHT22;68056;52.530;5.454;2023-03-18T05:20:35;10.50;68.20
78733;DHT22;68056;52.530;5.454;2023-03-18T05:23:01;10.50;68.30
78733;DHT22;68056;52.530;5.454;2023-03-18T05:25:27;10.40;68.30
78733;DHT22;68056;52.530;5.454;2023-03-18T05:27:53;10.40;68.30
78733;DHT22;68056;52.530;5.454;2023-03-18T05:30:28;10.50;68.40
78733;DHT22;68056;52.530;5.454;2023-03-18T05:32:54;10.40;68.60
78733;DHT22;68056;52.530;5.454;2023-03-18T05:35:20;10.50;68.50
78733;DHT22;68056;52.530;5.454;2023-03-18T05:37:46;10.40;68.60
78733;DHT22;68056;52.530;5.454;2023-03-18T05:40:13;10.40;68.70
78733;DHT22;68056;52.530;5.454;2023-03-18T05:42:39;10.50;68.90
78733;DHT22;68056;52.530;5.454;2023-03-18T05:45:07;10.50;69.10
78733;DHT22;68056;52.530;5.454;2023-03-18T05:47:33;10.50;69.40
78733;DHT22;68056;52.530;5.454;2023-03-18T05:49:59;10.50;69.60
78733;DHT22;68056;52.530;5.454;2023-03-18T05:52:26;10.50;69.80
78733;DHT22;68056;52.530;5.454;2023-03-18T05:54:52;10.50;70.00
78733;DHT22;68056;52.530;5.454;2023-03-18T05:57:18;10.50;70.30
78733;DHT22;68056;52.530;5.454;2023-03-18T05:59:45;10.50;70.70
78733;DHT22;68056;52.530;5.454;2023-03-18T06:02:10;10.40;70.70
78733;DHT22;68056;52.530;5.454;2023-03-18T06:04:37;10.40;70.80
78733;DHT22;68056;52.530;5.454;2023-03-18T06:07:03;10.40;70.80
78733;DHT22;68056;52.530;5.454;2023-03-18T06:09:30;10.40;71.00
78733;DHT22;68056;52.530;5.454;2023-03-18T06:11:57;10.40;70.90
78733;DHT22;68056;52.530;5.454;2023-03-18T06:14:24;10.40;70.90
78733;DHT22;68056;52.530;5.454;2023-03-18T06:16:57;10.40;70.90
78733;DHT22;68056;52.530;5.454;2023-03-18T06:19:24;10.40;71.00
78733;DHT22;68056;52.530;5.454;2023-03-18T06:21:51;10.40;71.10
78733;DHT22;68056;52.530;5.454;2023-03-18T06:24:17;10.40;71.10
78733;DHT22;68056;52.530;5.454;2023-03-18T06:26:43;10.40;71.10
78733;DHT22;68056;52.530;5.454;2023-03-18T06:29:09;10.40;71.20
78733;DHT22;68056;52.530;5.454;2023-03-18T06:31:35;10.40;71.20
78733;DHT22;68056;52.530;5.454;2023-03-18T06:34:02;10.40;71.30
78733;DHT22;68056;52.530;5.454;2023-03-18T06:36:28;10.50;71.40
78733;DHT22;68056;52.530;5.454;2023-03-18T06:38:53;10.50;71.30
78733;DHT22;68056;52.530;5.454;2023-03-18T06:41:20;10.50;71.40
78733;DHT22;68056;52.530;5.454;2023-03-18T06:43:46;10.50;71.30
78733;DHT22;68056;52.530;5.454;2023-03-18T06:46:15;10.50;71.40
78733;DHT22;68056;52.530;5.454;2023-03-18T06:48:40;10.50;71.40
78733;DHT22;68056;52.530;5.454;2023-03-18T06:51:07;10.50;71.40
78733;DHT22;68056;52.530;5.454;2023-03-18T06:53:33;10.60;71.50
78733;DHT22;68056;52.530;5.454;2023-03-18T06:56:01;10.60;71.50
78733;DHT22;68056;52.530;5.454;2023-03-18T06:58:26;10.60;71.50
78733;DHT22;68056;52.530;5.454;2023-03-18T07:00:52;10.60;71.50
78733;DHT22;68056;52.530;5.454;2023-03-18T07:03:19;10.60;71.50
78733;DHT22;68056;52.530;5.454;2023-03-18T07:05:48;10.70;71.50
78733;DHT22;68056;52.530;5.454;2023-03-18T07:08:15;10.70;71.50
78733;DHT22;68056;52.530;5.454;2023-03-18T07:10:41;10.70;71.50
78733;DHT22;68056;52.530;5.454;2023-03-18T07:13:06;10.70;71.60
78733;DHT22;68056;52.530;5.454;2023-03-18T07:15:33;10.70;71.60
78733;DHT22;68056;52.530;5.454;2023-03-18T07:17:59;10.70;71.60
78733;DHT22;68056;52.530;5.454;2023-03-18T07:20:25;10.70;71.60
78733;DHT22;68056;52.530;5.454;2023-03-18T07:22:50;10.70;71.60
78733;DHT22;68056;52.530;5.454;2023-03-18T07:25:16;10.70;71.70
78733;DHT22;68056;52.530;5.454;2023-03-18T07:27:42;10.70;71.70
78733;DHT22;68056;52.530;5.454;2023-03-18T07:30:09;10.80;71.70
78733;DHT22;68056;52.530;5.454;2023-03-18T07:32:36;10.80;71.70
78733;DHT22;68056;52.530;5.454;2023-03-18T07:35:03;10.90;71.60
78733;DHT22;68056;52.530;5.454;2023-03-18T07:37:30;11.10;71.60
78733;DHT22;68056;52.530;5.454;2023-03-18T07:39:56;11.30;71.40
78733;DHT22;68056;52.530;5.454;2023-03-18T07:42:22;11.50;71.10
78733;DHT22;68056;52.530;5.454;2023-03-18T07:44:48;11.70;70.90
78733;DHT22;68056;52.530;5.454;2023-03-18T07:47:13;11.70;70.70
78733;DHT22;68056;52.530;5.454;2023-03-18T07:49:39;11.70;70.70
78733;DHT22;68056;52.530;5.454;2023-03-18T07:52:06;11.70;70.80
78733;DHT22;68056;52.530;5.454;2023-03-18T07:54:32;11.60;70.90
78733;DHT22;68056;52.530;5.454;2023-03-18T07:56:58;11.60;71.10
78733;DHT22;68056;52.530;5.454;2023-03-18T07:59:24;11.50;71.20
78733;DHT22;68056;52.530;5.454;2023-03-18T08:01:49;11.50;71.30
78733;DHT22;68056;52.530;5.454;2023-03-18T08:04:15;11.60;71.30
78733;DHT22;68056;52.530;5.454;2023-03-18T08:06:42;11.60;71.40
78733;DHT22;68056;52.530;5.454;2023-03-18T08:09:07;11.70;71.50
78733;DHT22;68056;52.530;5.454;2023-03-18T08:11:33;11.90;71.40
78733;DHT22;68056;52.530;5.454;2023-03-18T08:13:59;12.10;71.10
78733;DHT22;68056;52.530;5.454;2023-03-18T08:16:25;12.50;70.80
78733;DHT22;68056;52.530;5.454;2023-03-18T08:18:51;13.10;70.20
78733;DHT22;68056;52.530;5.454;2023-03-18T08:21:17;13.50;69.40
78733;DHT22;68056;52.530;5.454;2023-03-18T08:23:43;13.90;68.90
78733;DHT22;68056;52.530;5.454;2023-03-18T08:26:09;13.90;68.50
78733;DHT22;68056;52.530;5.454;2023-03-18T08:28:35;13.90;68.50
78733;DHT22;68056;52.530;5.454;2023-03-18T08:31:01;14.00;68.60
78733;DHT22;68056;52.530;5.454;2023-03-18T08:33:29;14.40;68.30
78733;DHT22;68056;52.530;5.454;2023-03-18T08:35:54;14.80;67.80
78733;DHT22;68056;52.530;5.454;2023-03-18T08:38:21;15.30;67.30
78733;DHT22;68056;52.530;5.454;2023-03-18T08:40:48;15.60;66.90
78733;DHT22;68056;52.530;5.454;2023-03-18T08:43:13;16.00;66.30
78733;DHT22;68056;52.530;5.454;2023-03-18T08:45:39;16.30;65.70
78733;DHT22;68056;52.530;5.454;2023-03-18T08:48:05;16.50;65.50
78733;DHT22;68056;52.530;5.454;2023-03-18T08:50:32;16.60;65.20
78733;DHT22;68056;52.530;5.454;2023-03-18T08:52:59;16.70;64.90
78733;DHT22;68056;52.530;5.454;2023-03-18T08:55:33;16.70;64.90
78733;DHT22;68056;52.530;5.454;2023-03-18T08:58:00;16.90;64.70
78733;DHT22;68056;52.530;5.454;2023-03-18T09:00:25;17.10;64.30
78733;DHT22;68056;52.530;5.454;2023-03-18T09:02:52;17.40;64.00
78733;DHT22;68056;52.530;5.454;2023-03-18T09:05:18;17.50;63.70
78733;DHT22;68056;52.530;5.454;2023-03-18T09:07:44;17.50;63.50
78733;DHT22;68056;52.530;5.454;2023-03-18T09:10:12;17.30;63.30
78733;DHT22;68056;52.530;5.454;2023-03-18T09:12:40;17.20;63.70
78733;DHT22;68056;52.530;5.454;2023-03-18T09:15:11;17.30;63.60
78733;DHT22;68056;52.530;5.454;2023-03-18T09:17:41;17.60;63.30
78733;DHT22;68056;52.530;5.454;2023-03-18T09:20:10;17.80;63.00
78733;DHT22;68056;52.530;5.454;2023-03-18T09:22:37;18.10;62.60
78733;DHT22;68056;52.530;5.454;2023-03-18T09:25:07;18.40;62.20
78733;DHT22;68056;52.530;5.454;2023-03-18T09:27:45;18.70;61.80
78733;DHT22;68056;52.530;5.454;2023-03-18T09:30:11;19.00;61.30
78733;DHT22;68056;52.530;5.454;2023-03-18T10:45:23;18.90;58.80
78733;DHT22;68056;52.530;5.454;2023-03-18T10:47:57;20.20;55.30
78733;DHT22;68056;52.530;5.454;2023-03-18T10:51:02;20.00;55.90
78733;DHT22;68056;52.530;5.454;2023-03-18T10:53:37;19.60;56.60
78733;DHT22;68056;52.530;5.454;2023-03-18T10:56:08;19.50;57.10
78733;DHT22;68056;52.530;5.454;2023-03-18T10:58:36;19.70;57.10
78733;DHT22;68056;52.530;5.454;2023-03-18T11:01:09;19.90;56.50
78733;DHT22;68056;52.530;5.454;2023-03-18T11:03:44;19.80;56.30
78733;DHT22;68056;52.530;5.454;2023-03-18T11:06:19;19.50;56.20
78733;DHT22;68056;52.530;5.454;2023-03-18T11:08:47;19.10;56.70
78733;DHT22;68056;52.530;5.454;2023-03-18T11:11:20;18.90;57.30
78733;DHT22;68056;52.530;5.454;2023-03-18T11:13:54;19.00;57.40
78733;DHT22;68056;52.530;5.454;2023-03-18T11:16:39;19.10;57.20
78733;DHT22;68056;52.530;5.454;2023-03-18T11:19:30;19.40;57.00
78733;DHT22;68056;52.530;5.454;2023-03-18T11:24:35;20.30;56.20
78733;DHT22;68056;52.530;5.454;2023-03-18T11:27:23;20.70;55.50
78733;DHT22;68056;52.530;5.454;2023-03-18T11:29:57;20.80;55.00
78733;DHT22;68056;52.530;5.454;2023-03-18T11:32:31;20.50;54.90
78733;DHT22;68056;52.530;5.454;2023-03-18T11:34:58;20.00;55.50
78733;DHT22;68056;52.530;5.454;2023-03-18T11:37:32;19.70;55.90
78733;DHT22;68056;52.530;5.454;2023-03-18T11:40:19;19.30;56.40
78733;DHT22;68056;52.530;5.454;2023-03-18T11:42:47;19.00;56.90
78733;DHT22;68056;52.530;5.454;2023-03-18T11:45:53;18.70;57.00
78733;DHT22;68056;52.530;5.454;2023-03-18T11:51:04;18.50;57.70
78733;DHT22;68056;52.530;5.454;2023-03-18T11:56:34;18.60;57.70
78733;DHT22;68056;52.530;5.454;2023-03-18T12:08:06;18.60;58.10
78733;DHT22;68056;52.530;5.454;2023-03-18T12:21:28;18.30;58.70
78733;DHT22;68056;52.530;5.454;2023-03-18T12:27:02;18.30;58.70
78733;DHT22;68056;52.530;5.454;2023-03-18T12:29:56;18.20;58.70
78733;DHT22;68056;52.530;5.454;2023-03-18T12:32:25;18.10;58.80
78733;DHT22;68056;52.530;5.454;2023-03-18T12:35:15;18.00;58.90
78733;DHT22;68056;52.530;5.454;2023-03-18T12:38:12;17.80;59.10
78733;DHT22;68056;52.530;5.454;2023-03-18T12:40:53;17.80;59.30
78733;DHT22;68056;52.530;5.454;2023-03-18T12:43:30;17.80;59.40
78733;DHT22;68056;52.530;5.454;2023-03-18T12:46:20;17.90;59.40
78733;DHT22;68056;52.530;5.454;2023-03-18T12:49:07;18.10;59.20
78733;DHT22;68056;52.530;5.454;2023-03-18T12:51:43;18.50;58.80
78733;DHT22;68056;52.530;5.454;2023-03-18T12:54:19;18.70;58.50
78733;DHT22;68056;52.530;5.454;2023-03-18T12:56:49;18.70;58.40
78733;DHT22;68056;52.530;5.454;2023-03-18T13:04:29;18.90;58.30
78733;DHT22;68056;52.530;5.454;2023-03-18T13:07:13;18.90;58.20
78733;DHT22;68056;52.530;5.454;2023-03-18T13:17:40;18.10;58.90
78733;DHT22;68056;52.530;5.454;2023-03-18T13:20:11;18.00;58.90
78733;DHT22;68056;52.530;5.454;2023-03-18T13:30:47;17.70;59.00
78733;DHT22;68056;52.530;5.454;2023-03-18T13:33:42;17.50;59.20
78733;DHT22;68056;52.530;5.454;2023-03-18T13:40:02;17.50;59.50
78733;DHT22;68056;52.530;5.454;2023-03-18T13:44:59;18.30;58.60
78733;DHT22;68056;52.530;5.454;2023-03-18T13:47:30;18.60;58.10
78733;DHT22;68056;52.530;5.454;2023-03-18T13:52:45;18.40;57.20
78733;DHT22;68056;52.530;5.454;2023-03-18T13:55:32;18.10;57.30
78733;DHT22;68056;52.530;5.454;2023-03-18T14:00:39;17.80;57.70
78733;DHT22;68056;52.530;5.454;2023-03-18T14:05:44;18.00;57.60
78733;DHT22;68056;52.530;5.454;2023-03-18T14:13:50;18.60;56.20
78733;DHT22;68056;52.530;5.454;2023-03-18T14:16:17;18.40;55.90
78733;DHT22;68056;52.530;5.454;2023-03-18T14:21:43;18.00;55.90
78733;DHT22;68056;52.530;5.454;2023-03-18T14:24:22;17.80;56.30
78733;DHT22;68056;52.530;5.454;2023-03-18T14:27:09;17.60;56.50
78733;DHT22;68056;52.530;5.454;2023-03-18T14:29:41;17.60;56.70
78733;DHT22;68056;52.530;5.454;2023-03-18T14:37:30;17.40;57.30
78733;DHT22;68056;52.530;5.454;2023-03-18T14:40:03;17.20;57.30
78733;DHT22;68056;52.530;5.454;2023-03-18T14:42:35;17.10;57.20
78733;DHT22;68056;52.530;5.454;2023-03-18T14:47:47;17.00;57.10
78733;DHT22;68056;52.530;5.454;2023-03-18T14:50:44;17.00;57.30
78733;DHT22;68056;52.530;5.454;2023-03-18T14:53:20;17.00;57.20
78733;DHT22;68056;52.530;5.454;2023-03-18T14:55:47;17.00;57.10
78733;DHT22;68056;52.530;5.454;2023-03-18T14:58:21;17.10;57.20
78733;DHT22;68056;52.530;5.454;2023-03-18T15:00:53;17.20;57.10
78733;DHT22;68056;52.530;5.454;2023-03-18T15:03:26;17.40;56.90
78733;DHT22;68056;52.530;5.454;2023-03-18T15:06:00;17.50;56.90
78733;DHT22;68056;52.530;5.454;2023-03-18T15:08:29;17.60;56.80
78733;DHT22;68056;52.530;5.454;2023-03-18T15:10:56;17.80;56.50
78733;DHT22;68056;52.530;5.454;2023-03-18T15:13:24;17.90;56.30
78733;DHT22;68056;52.530;5.454;2023-03-18T15:15:53;18.00;56.10
78733;DHT22;68056;52.530;5.454;2023-03-18T15:18:33;18.00;56.30
78733;DHT22;68056;52.530;5.454;2023-03-18T15:23:40;18.20;56.20
78733;DHT22;68056;52.530;5.454;2023-03-18T15:26:24;18.30;56.00
78733;DHT22;68056;52.530;5.454;2023-03-18T15:28:56;18.20;55.90
78733;DHT22;68056;52.530;5.454;2023-03-18T15:31:29;18.20;55.90
78733;DHT22;68056;52.530;5.454;2023-03-18T15:34:21;18.10;55.90
78733;DHT22;68056;52.530;5.454;2023-03-18T15:36:55;18.00;56.10
78733;DHT22;68056;52.530;5.454;2023-03-18T15:39:34;17.90;56.00
78733;DHT22;68056;52.530;5.454;2023-03-18T15:42:01;17.80;56.10
78733;DHT22;68056;52.530;5.454;2023-03-18T15:44:31;17.60;56.20
78733;DHT22;68056;52.530;5.454;2023-03-18T15:47:27;17.50;56.40
78733;DHT22;68056;52.530;5.454;2023-03-18T15:50:01;17.40;56.40
78733;DHT22;68056;52.530;5.454;2023-03-18T15:52:34;17.40;56.50
78733;DHT22;68056;52.530;5.454;2023-03-18T15:55:27;17.40;56.60
78733;DHT22;68056;52.530;5.454;2023-03-18T15:57:54;17.40;56.70
78733;DHT22;68056;52.530;5.454;2023-03-18T16:00:20;17.40;56.80
78733;DHT22;68056;52.530;5.454;2023-03-18T16:02:46;17.20;56.70
78733;DHT22;68056;52.530;5.454;2023-03-18T16:07:44;17.00;57.20
78733;DHT22;68056;52.530;5.454;2023-03-18T16:10:10;17.00;57.30
78733;DHT22;68056;52.530;5.454;2023-03-18T16:12:36;17.00;57.40
78733;DHT22;68056;52.530;5.454;2023-03-18T16:15:05;16.90;57.50
78733;DHT22;68056;52.530;5.454;2023-03-18T16:17:32;16.90;57.70
78733;DHT22;68056;52.530;5.454;2023-03-18T16:19:58;16.80;57.80
78733;DHT22;68056;52.530;5.454;2023-03-18T16:22:25;16.70;57.90
78733;DHT22;68056;52.530;5.454;2023-03-18T16:24:51;16.70;58.00
78733;DHT22;68056;52.530;5.454;2023-03-18T16:27:41;16.60;58.10
78733;DHT22;68056;52.530;5.454;2023-03-18T16:30:28;16.60;57.90
78733;DHT22;68056;52.530;5.454;2023-03-18T16:32:55;16.50;57.60
78733;DHT22;68056;52.530;5.454;2023-03-18T16:35:23;16.40;57.60
78733;DHT22;68056;52.530;5.454;2023-03-18T16:37:50;16.40;57.20
78733;DHT22;68056;52.530;5.454;2023-03-18T16:40:19;16.30;57.10
78733;DHT22;68056;52.530;5.454;2023-03-18T16:42:45;16.10;57.20
78733;DHT22;68056;52.530;5.454;2023-03-18T16:45:16;16.10;57.40
78733;DHT22;68056;52.530;5.454;2023-03-18T16:47:45;16.00;57.50
78733;DHT22;68056;52.530;5.454;2023-03-18T16:50:20;16.00;57.60
78733;DHT22;68056;52.530;5.454;2023-03-18T16:52:47;15.80;57.70
78733;DHT22;68056;52.530;5.454;2023-03-18T16:55:16;15.80;57.80
78733;DHT22;68056;52.530;5.454;2023-03-18T16:57:50;15.80;57.90
78733;DHT22;68056;52.530;5.454;2023-03-18T17:00:23;15.70;58.00
78733;DHT22;68056;52.530;5.454;2023-03-18T17:02:50;15.60;58.00
78733;DHT22;68056;52.530;5.454;2023-03-18T17:05:20;15.60;58.10
78733;DHT22;68056;52.530;5.454;2023-03-18T17:07:47;15.60;58.20
78733;DHT22;68056;52.530;5.454;2023-03-18T17:10:14;15.50;58.30
78733;DHT22;68056;52.530;5.454;2023-03-18T17:12:48;15.40;58.40
78733;DHT22;68056;52.530;5.454;2023-03-18T17:15:16;15.40;58.50
78733;DHT22;68056;52.530;5.454;2023-03-18T17:17:42;15.40;58.50
78733;DHT22;68056;52.530;5.454;2023-03-18T17:20:18;15.30;58.60
78733;DHT22;68056;52.530;5.454;2023-03-18T17:22:44;15.20;58.70
78733;DHT22;68056;52.530;5.454;2023-03-18T17:25:10;15.20;58.80
78733;DHT22;68056;52.530;5.454;2023-03-18T17:27:42;15.10;58.90
78733;DHT22;68056;52.530;5.454;2023-03-18T17:30:40;15.00;59.00
78733;DHT22;68056;52.530;5.454;2023-03-18T17:35:44;15.00;59.10
78733;DHT22;68056;52.530;5.454;2023-03-18T17:38:10;15.00;59.10
78733;DHT22;68056;52.530;5.454;2023-03-18T17:40:35;14.90;59.20
78733;DHT22;68056;52.530;5.454;2023-03-18T17:43:01;14.90;59.30
78733;DHT22;68056;52.530;5.454;2023-03-18T17:45:33;14.90;59.40
78733;DHT22;68056;52.530;5.454;2023-03-18T17:48:13;14.80;59.50
78733;DHT22;68056;52.530;5.454;2023-03-18T17:50:40;14.80;59.70
78733;DHT22;68056;52.530;5.454;2023-03-18T17:53:18;14.70;59.70
78733;DHT22;68056;52.530;5.454;2023-03-18T17:55:45;14.60;59.80
78733;DHT22;68056;52.530;5.454;2023-03-18T17:58:15;14.60;59.90
78733;DHT22;68056;52.530;5.454;2023-03-18T18:00:43;14.50;60.10
78733;DHT22;68056;52.530;5.454;2023-03-18T18:03:23;14.50;60.20
78733;DHT22;68056;52.530;5.454;2023-03-18T18:05:53;14.40;60.40
78733;DHT22;68056;52.530;5.454;2023-03-18T18:08:21;14.40;60.50
78733;DHT22;68056;52.530;5.454;2023-03-18T18:10:48;14.30;60.60
78733;DHT22;68056;52.530;5.454;2023-03-18T18:13:22;14.20;60.70
78733;DHT22;68056;52.530;5.454;2023-03-18T18:15:49;14.20;60.80
78733;DHT22;68056;52.530;5.454;2023-03-18T18:18:20;14.10;60.80
78733;DHT22;68056;52.530;5.454;2023-03-18T18:20:58;14.10;60.90
78733;DHT22;68056;52.530;5.454;2023-03-18T18:23:30;14.00;61.00
78733;DHT22;68056;52.530;5.454;2023-03-18T18:25:58;14.00;61.00
78733;DHT22;68056;52.530;5.454;2023-03-18T18:28:37;14.00;61.00
78733;DHT22;68056;52.530;5.454;2023-03-18T18:31:05;14.00;61.10
78733;DHT22;68056;52.530;5.454;2023-03-18T18:33:32;13.90;61.10
78733;DHT22;68056;52.530;5.454;2023-03-18T18:35:59;13.90;61.10